^^
Datos históricos de la estación: Murcia-Puente Tocinos
Diario Informe para Octubre 29, 2019 Unidades:  Métrico    Ingés   Ambas
Diario Semanal Mensual Anual
  Máxima: Mínima: Promedio:
Temperatura: 27.2 °C 14.6 °C 19.9 °C
Punto de rocio: 16.3 °C 11.6 °C 13.8 °C
Humedad: 91% 38.5% 71%
Velocidad viento: 13km/h 2.2km/h 7km/h
Racha viento: 24.1km/h - -
Viento- - SSO
Presión: 1017.6 hPa 1014.2 hPa -
Precipitación: 0.0 mm    
 
 
Tabla de datos para Octubre 29, 2019
Hora Temperatura Punto de rocio Presión Viento Velocidad viento Racha viento Humedad Intensidad lluvia(por hora) Nubes
00:04 16.4 °C 14.8 °C 1015.7 hPa SSO 4 km/h 9.5 km/h 90% 0.0 mm
00:09 16.5 °C 14.8 °C 1015.7 hPa SSO 3.9 km/h 10 km/h 90% 0.0 mm
00:14 16.5 °C 14.8 °C 1015.7 hPa SO 5.8 km/h 9.7 km/h 90% 0.0 mm
00:19 16.5 °C 14.8 °C 1015.7 hPa SSO 6.5 km/h 13 km/h 89.6% 0.0 mm
00:24 16.4 °C 14.8 °C 1015.7 hPa Sur 6.8 km/h 12.9 km/h 90% 0.0 mm
00:29 16.4 °C 14.8 °C 1015.5 hPa Sur 6.9 km/h 11.3 km/h 90% 0.0 mm
00:34 16.3 °C 14.7 °C 1015.5 hPa SSO 6.9 km/h 11.3 km/h 90% 0.0 mm
00:39 16.3 °C 14.7 °C 1015.6 hPa SSO 6.9 km/h 11.3 km/h 90% 0.0 mm
00:44 16.3 °C 14.7 °C 1015.6 hPa Sur 6.9 km/h 11.3 km/h 90% 0.0 mm
00:49 16.2 °C 14.6 °C 1015.6 hPa Sur 6.9 km/h 9.7 km/h 90% 0.0 mm
00:54 16.2 °C 14.6 °C 1015.6 hPa SSO 6.1 km/h 9.7 km/h 90% 0.0 mm
00:59 16.2 °C 14.5 °C 1015.5 hPa SSO 5.8 km/h 9.3 km/h 90% 0.0 mm
01:04 16.1 °C 14.4 °C 1015.5 hPa Sur 5.8 km/h 9.7 km/h 90% 0.0 mm
01:09 16.1 °C 14.4 °C 1015.5 hPa Sur 5.8 km/h 9.7 km/h 90% 0.0 mm
01:14 16.1 °C 14.4 °C 1015.3 hPa Sur 5.2 km/h 9.7 km/h 90% 0.0 mm
01:19 16 °C 14.4 °C 1015.3 hPa SSE 5 km/h 10 km/h 90.5% 0.0 mm
01:24 15.9 °C 14.4 °C 1015.3 hPa Sur 5 km/h 9.7 km/h 91% 0.0 mm
01:29 15.9 °C 14.4 °C 1015.3 hPa SSE 5 km/h 8 km/h 91% 0.0 mm
01:34 15.8 °C 14.4 °C 1015.3 hPa Sur 4.7 km/h 8.4 km/h 91% 0.0 mm
01:39 15.8 °C 14.3 °C 1015.3 hPa Sur 4.7 km/h 9.5 km/h 91% 0.0 mm
01:44 15.8 °C 14.3 °C 1015.3 hPa SSE 5.5 km/h 9.7 km/h 91% 0.0 mm
01:49 15.8 °C 14.3 °C 1015.3 hPa SSE 5.8 km/h 11.1 km/h 91% 0.0 mm
01:54 15.7 °C 14.3 °C 1015.3 hPa SSE 6.6 km/h 11.3 km/h 91% 0.0 mm
01:59 15.7 °C 14.2 °C 1015.3 hPa Sur 6.9 km/h 11.1 km/h 91% 0.0 mm
02:04 15.7 °C 14.2 °C 1015.3 hPa Sur 6.9 km/h 11.3 km/h 91% 0.0 mm
02:09 15.6 °C 14.1 °C 1015.3 hPa Sur 6.9 km/h 9.7 km/h 91% 0.0 mm
02:14 15.6 °C 14.1 °C 1015.2 hPa Sur 6.6 km/h 9.5 km/h 91% 0.0 mm
02:19 15.6 °C 14.1 °C 1015.2 hPa SSE 6.5 km/h 9.7 km/h 91% 0.0 mm
02:24 15.5 °C 14.1 °C 1015.2 hPa Sur 6 km/h 9.7 km/h 91% 0.0 mm
02:29 15.4 °C 14 °C 1015.1 hPa SSE 5.8 km/h 8.4 km/h 91% 0.0 mm
02:34 15.4 °C 13.9 °C 1015.1 hPa SSE 5.8 km/h 8 km/h 91% 0.0 mm
02:39 15.4 °C 13.9 °C 1015.1 hPa SSO 5.8 km/h 8 km/h 91% 0.0 mm
02:44 15.4 °C 13.9 °C 1015.0 hPa Sur 4.9 km/h 8.4 km/h 91% 0.0 mm
02:49 15.4 °C 13.9 °C 1015.0 hPa SSO 4.7 km/h 8 km/h 91% 0.0 mm
02:54 15.4 °C 13.9 °C 1015.0 hPa OSO 4.7 km/h 7.6 km/h 91% 0.0 mm
02:59 15.4 °C 13.9 °C 1014.9 hPa OSO 4.7 km/h 8.4 km/h 91% 0.0 mm
03:04 15.4 °C 13.9 °C 1014.9 hPa SO 4 km/h 8.4 km/h 91% 0.0 mm
03:09 15.4 °C 13.9 °C 1014.9 hPa SO 3.9 km/h 8 km/h 91% 0.0 mm
03:14 15.4 °C 13.9 °C 1014.9 hPa SO 4.5 km/h 8.4 km/h 91% 0.0 mm
03:19 15.4 °C 13.9 °C 1014.9 hPa SSO 4.7 km/h 8.4 km/h 90.7% 0.0 mm
03:24 15.4 °C 13.8 °C 1014.9 hPa Sur 4.7 km/h 8 km/h 90% 0.0 mm
03:29 15.3 °C 13.7 °C 1014.9 hPa Sur 4.7 km/h 8.4 km/h 90% 0.0 mm
03:34 15.3 °C 13.6 °C 1014.9 hPa SSE 4.7 km/h 8 km/h 90% 0.0 mm
03:39 15.2 °C 13.7 °C 1014.9 hPa SSE 4.7 km/h 9.5 km/h 90.7% 0.0 mm
03:44 15.2 °C 13.7 °C 1014.8 hPa Sur 6 km/h 10 km/h 91% 0.0 mm
03:49 15.2 °C 13.7 °C 1014.8 hPa Sur 6.5 km/h 11.1 km/h 91% 0.0 mm
03:54 15.2 °C 13.7 °C 1014.8 hPa SSO 6.8 km/h 11.9 km/h 91% 0.0 mm
03:59 15.2 °C 13.7 °C 1014.7 hPa Sur 6.9 km/h 11.3 km/h 91% 0.0 mm
04:04 15.2 °C 13.7 °C 1014.7 hPa Sur 8.1 km/h 11.3 km/h 91% 0.0 mm
04:09 15.2 °C 13.7 °C 1014.7 hPa Sur 8.4 km/h 11.9 km/h 91% 0.0 mm
04:14 15.2 °C 13.7 °C 1014.6 hPa Sur 7.8 km/h 11.3 km/h 91% 0.0 mm
04:19 15.1 °C 13.7 °C 1014.6 hPa SSO 7.6 km/h 11.3 km/h 91% 0.0 mm
04:24 15.1 °C 13.7 °C 1014.6 hPa SSO 7.6 km/h 11.3 km/h 91% 0.0 mm
04:29 15.1 °C 13.7 °C 1014.5 hPa SO 7.6 km/h 9.7 km/h 91% 0.0 mm
04:34 15.1 °C 13.7 °C 1014.5 hPa SSO 5.6 km/h 8 km/h 91% 0.0 mm
04:39 15.1 °C 13.7 °C 1014.5 hPa SSO 5 km/h 9.3 km/h 91% 0.0 mm
04:44 15.1 °C 13.7 °C 1014.5 hPa SSO 5.6 km/h 11.1 km/h 91% 0.0 mm
04:49 15.1 °C 13.7 °C 1014.5 hPa Sur 5.8 km/h 11.3 km/h 91% 0.0 mm
04:54 15.1 °C 13.7 °C 1014.5 hPa SSO 5.2 km/h 10 km/h 91% 0.0 mm
04:59 15.1 °C 13.7 °C 1014.5 hPa SSO 5 km/h 9.7 km/h 91% 0.0 mm
05:04 15.1 °C 13.7 °C 1014.5 hPa SO 6.1 km/h 9.7 km/h 91% 0.0 mm
05:09 15.1 °C 13.7 °C 1014.5 hPa SO 6.5 km/h 8 km/h 91% 0.0 mm
05:14 15.1 °C 13.6 °C 1014.5 hPa SSE 5.4 km/h 10 km/h 90.8% 0.0 mm
05:19 15.1 °C 13.4 °C 1014.5 hPa Sur 5 km/h 9.7 km/h 90% 0.0 mm
05:24 15.1 °C 13.6 °C 1014.5 hPa SSO 5.6 km/h 9.5 km/h 90.5% 0.0 mm
05:29 15.1 °C 13.6 °C 1014.5 hPa SSO 5.8 km/h 11.1 km/h 91% 0.0 mm
05:34 15 °C 13.6 °C 1014.5 hPa SSO 6.3 km/h 11.3 km/h 91% 0.0 mm
05:39 15 °C 13.4 °C 1014.6 hPa SO 6.5 km/h 11.3 km/h 90.1% 0.0 mm
05:44 14.9 °C 13.3 °C 1014.6 hPa SSO 6.5 km/h 11.1 km/h 90% 0.0 mm
05:49 14.9 °C 13.3 °C 1014.6 hPa SSO 6.5 km/h 11.3 km/h 90% 0.0 mm
05:54 14.9 °C 13.3 °C 1014.6 hPa SSO 6.5 km/h 9.7 km/h 90% 0.0 mm
05:59 14.9 °C 13.3 °C 1014.6 hPa Sur 6.5 km/h 11.1 km/h 90% 0.0 mm
06:04 14.8 °C 13.2 °C 1014.6 hPa Sur 6.5 km/h 11.3 km/h 90% 0.0 mm
06:09 14.8 °C 13.2 °C 1014.6 hPa SSO 6.5 km/h 11.3 km/h 90% 0.0 mm
06:14 14.8 °C 13.2 °C 1014.5 hPa SSO 6.5 km/h 9.7 km/h 90% 0.0 mm
06:19 14.8 °C 13.1 °C 1014.5 hPa SSO 6.5 km/h 9.7 km/h 90% 0.0 mm
06:24 14.8 °C 13.1 °C 1014.7 hPa SSO 6.5 km/h 9.7 km/h 90% 0.0 mm
06:29 14.8 °C 13.2 °C 1014.7 hPa SSO 6.5 km/h 10 km/h 90% 0.0 mm
06:34 14.8 °C 13.2 °C 1014.7 hPa SSE 6.5 km/h 10.3 km/h 90% 0.0 mm
06:39 14.8 °C 13.2 °C 1014.7 hPa Sur 6.5 km/h 11.3 km/h 90% 0.0 mm
06:44 14.7 °C 13.1 °C 1014.7 hPa SSO 6.8 km/h 11.3 km/h 90% 0.0 mm
06:49 14.7 °C 13.1 °C 1014.7 hPa SSO 6.9 km/h 11.1 km/h 90% 0.0 mm
06:54 14.7 °C 13.1 °C 1014.9 hPa SO 6.9 km/h 11.3 km/h 90% 0.0 mm
06:59 14.7 °C 13.1 °C 1014.9 hPa SO 6.9 km/h 11.3 km/h 90% 0.0 mm
07:04 14.7 °C 13.1 °C 1014.9 hPa SO 6.6 km/h 11.1 km/h 90% 0.0 mm
07:09 14.7 °C 13.1 °C 1014.9 hPa SO 6.5 km/h 11.3 km/h 90% 0.0 mm
07:14 14.7 °C 13.1 °C 1014.9 hPa SO 6 km/h 8 km/h 90% 0.0 mm
07:19 14.7 °C 13.1 °C 1014.9 hPa SO 5.8 km/h 10 km/h 90% 0.0 mm
07:24 14.7 °C 13.1 °C 1015.0 hPa SO 5.8 km/h 10 km/h 90% 0.0 mm
07:29 14.7 °C 13 °C 1015.0 hPa SO 5.8 km/h 11.1 km/h 90% 0.0 mm
07:34 14.7 °C 13 °C 1015.0 hPa SO 7.1 km/h 11.3 km/h 90% 0.0 mm
07:39 14.7 °C 13 °C 1015.1 hPa SO 7.6 km/h 11.3 km/h 89.9% 0.0 mm
07:44 14.7 °C 13 °C 1015.1 hPa SO 7.6 km/h 9.7 km/h 89.8% 0.0 mm
07:49 14.7 °C 13 °C 1015.1 hPa SO 7.6 km/h 9.7 km/h 90% 0.0 mm
07:54 14.7 °C 13.1 °C 1015.3 hPa SO 5.6 km/h 8 km/h 90% 0.0 mm
07:59 14.7 °C 13 °C 1015.3 hPa Sur 5 km/h 8 km/h 89.7% 0.0 mm
08:04 14.6 °C 12.8 °C 1015.3 hPa NE 3.4 km/h 8 km/h 89% 0.0 mm
08:09 14.6 °C 13 °C 1015.6 hPa NE 2.9 km/h 4.8 km/h 89.7% 0.0 mm
08:14 14.7 °C 13 °C 1015.6 hPa OSO 2.4 km/h 5.6 km/h 90% 0.0 mm
08:19 14.8 °C 13.2 °C 1015.6 hPa SO 2.2 km/h 5.8 km/h 90% 0.0 mm
08:24 14.9 °C 13.1 °C 1015.7 hPa Este 2.7 km/h 7.4 km/h 88.8% 0.0 mm
08:29 15.1 °C 13.1 °C 1015.7 hPa SE 2.9 km/h 8 km/h 88.1% 0.0 mm
08:34 15.2 °C 13.1 °C 1015.7 hPa SSO 3.6 km/h 8 km/h 87.2% 0.0 mm
08:39 15.2 °C 13.1 °C 1015.8 hPa SSO 3.9 km/h 8 km/h 87% 0.0 mm
08:44 15.3 °C 13.2 °C 1015.8 hPa Sur 4.5 km/h 8 km/h 87% 0.0 mm
08:49 15.4 °C 13.2 °C 1015.8 hPa SO 4.7 km/h 8 km/h 87% 0.0 mm
08:54 15.7 °C 13.4 °C 1016.0 hPa Sur 3.6 km/h 7.4 km/h 86.5% 0.0 mm
08:59 15.8 °C 13.5 °C 1016.0 hPa SSO 3.2 km/h 9.5 km/h 85.8% 0.0 mm
09:04 16.1 °C 13.6 °C 1016.0 hPa SSO 4.6 km/h 11.1 km/h 85% 0.0 mm
09:09 16.3 °C 13.7 °C 1016.0 hPa Sur 5 km/h 11.3 km/h 84.8% 0.0 mm
09:14 16.6 °C 13.9 °C 1016.0 hPa Sur 5 km/h 9.3 km/h 83.8% 0.0 mm
09:19 16.9 °C 13.9 °C 1016.0 hPa Sur 5 km/h 9.7 km/h 82.1% 0.0 mm
09:24 17.2 °C 13.9 °C 1016.2 hPa SSO 4.2 km/h 9.3 km/h 80.6% 0.0 mm
09:29 17.4 °C 13.8 °C 1016.2 hPa SSO 3.9 km/h 9.7 km/h 79.3% 0.0 mm
09:34 17.6 °C 13.8 °C 1016.2 hPa SSO 5.3 km/h 9.3 km/h 78.1% 0.0 mm
09:39 17.8 °C 13.9 °C 1016.2 hPa SO 5.8 km/h 10 km/h 77.7% 0.0 mm
09:44 18 °C 13.7 °C 1016.2 hPa SO 5.2 km/h 11.1 km/h 76% 0.0 mm
09:49 18.2 °C 13.8 °C 1016.2 hPa OSO 5 km/h 11.3 km/h 75.7% 0.0 mm
09:54 18.3 °C 13.8 °C 1016.4 hPa OSO 5 km/h 10.3 km/h 74.9% 0.0 mm
09:59 18.5 °C 13.7 °C 1016.4 hPa OSO 5 km/h 11.3 km/h 73.7% 0.0 mm
10:04 18.7 °C 13.8 °C 1016.4 hPa OSO 5.6 km/h 9.7 km/h 73.4% 0.0 mm
10:09 18.8 °C 13.7 °C 1016.5 hPa SO 5.8 km/h 11.1 km/h 72.5% 0.0 mm
10:14 19 °C 13.7 °C 1016.5 hPa SO 5.8 km/h 11.3 km/h 71.3% 0.0 mm
10:19 19.3 °C 13.6 °C 1016.5 hPa Sur 5.8 km/h 9.7 km/h 69.8% 0.0 mm
10:24 19.5 °C 13.5 °C 1016.5 hPa SSO 6.3 km/h 13 km/h 68.2% 0.0 mm
10:29 19.7 °C 13.4 °C 1016.5 hPa SSO 6.5 km/h 14 km/h 66.8% 0.0 mm
10:34 20 °C 13.1 °C 1016.5 hPa SSO 7.9 km/h 17.2 km/h 64.7% 0.0 mm
10:39 20.2 °C 13.1 °C 1016.6 hPa SSO 8.4 km/h 17.7 km/h 63.8% 0.0 mm
10:44 20.5 °C 13 °C 1016.6 hPa SSO 8.4 km/h 13 km/h 62.2% 0.0 mm
10:49 20.8 °C 13 °C 1016.6 hPa SSO 8.4 km/h 13 km/h 61.1% 0.0 mm
10:54 21 °C 13.2 °C 1016.7 hPa SSO 8.6 km/h 12.9 km/h 61% 0.0 mm
10:59 21.2 °C 13.4 °C 1016.7 hPa SSO 8.7 km/h 19 km/h 61% 0.0 mm
11:04 21.3 °C 13.4 °C 1016.7 hPa SSO 9.3 km/h 19.3 km/h 60.7% 0.0 mm
11:09 21.5 °C 13.3 °C 1016.7 hPa SSO 9.5 km/h 15.6 km/h 59.5% 0.0 mm
11:14 21.7 °C 13.3 °C 1016.5 hPa SSO 9.5 km/h 16.7 km/h 58.8% 0.0 mm
11:19 21.9 °C 13.2 °C 1016.5 hPa SO 9.5 km/h 16.1 km/h 57.8% 0.0 mm
11:24 22.1 °C 13.2 °C 1016.5 hPa SO 9.5 km/h 16.1 km/h 57.1% 0.0 mm
11:29 22.3 °C 13.3 °C 1016.4 hPa SO 9.5 km/h 17.2 km/h 56.6% 0.0 mm
11:34 22.5 °C 13.3 °C 1016.4 hPa SO 9.5 km/h 22.2 km/h 56.1% 0.0 mm
11:39 22.7 °C 13.4 °C 1016.4 hPa SO 9.5 km/h 22.5 km/h 56% 0.0 mm
11:44 22.7 °C 13.5 °C 1016.3 hPa SO 10.1 km/h 19.3 km/h 56% 0.0 mm
11:49 22.8 °C 13.6 °C 1016.3 hPa OSO 10.3 km/h 19.3 km/h 56% 0.0 mm
11:54 23 °C 13.7 °C 1016.3 hPa SO 9.7 km/h 16.7 km/h 55.8% 0.0 mm
11:59 23.2 °C 13.5 °C 1016.3 hPa OSO 9.5 km/h 20.4 km/h 54.4% 0.0 mm
12:04 23.3 °C 13.5 °C 1016.3 hPa SO 9.5 km/h 20.9 km/h 53.9% 0.0 mm
12:09 23.4 °C 13.4 °C 1016.3 hPa SO 9.5 km/h 23.3 km/h 53.3% 0.0 mm
12:14 23.6 °C 13.2 °C 1016.1 hPa OSO 10.7 km/h 24.1 km/h 52.4% 0.0 mm
12:19 23.7 °C 13.2 °C 1016.1 hPa OSO 11.1 km/h 20.9 km/h 51.8% 0.0 mm
12:24 23.8 °C 13.1 °C 1016.1 hPa SO 12.6 km/h 22.2 km/h 51.2% 0.0 mm
12:29 23.9 °C 13.2 °C 1015.9 hPa Oeste 13 km/h 22.5 km/h 51% 0.0 mm
12:34 24.1 °C 13.2 °C 1015.9 hPa OSO 10.4 km/h 22.5 km/h 50.6% 0.0 mm
12:39 24.2 °C 13.1 °C 1015.9 hPa Oeste 9.5 km/h 22.5 km/h 50% 0.0 mm
12:44 24.3 °C 13.2 °C 1015.7 hPa Oeste 10.7 km/h 20.9 km/h 50% 0.0 mm
12:49 24.4 °C 13.3 °C 1015.7 hPa OSO 11.1 km/h 19.3 km/h 50% 0.0 mm
12:54 24.6 °C 13.3 °C 1015.7 hPa OSO 10.3 km/h 19.3 km/h 49.7% 0.0 mm
12:59 24.7 °C 13.4 °C 1015.5 hPa SO 10 km/h 19.3 km/h 49.3% 0.0 mm
13:04 24.8 °C 13.3 °C 1015.5 hPa Oeste 9 km/h 19.3 km/h 48.6% 0.0 mm
13:09 24.9 °C 13.1 °C 1015.5 hPa Oeste 8.7 km/h 14.8 km/h 48.1% 0.0 mm
13:14 24.9 °C 13.1 °C 1015.2 hPa OSO 8.7 km/h 19 km/h 48.2% 0.0 mm
13:19 24.9 °C 13.2 °C 1015.2 hPa SO 8.7 km/h 19.3 km/h 48% 0.0 mm
13:24 25.1 °C 13.3 °C 1015.2 hPa OSO 9.9 km/h 18.3 km/h 47.9% 0.0 mm
13:29 25.1 °C 13.2 °C 1015.2 hPa OSO 10.3 km/h 19.3 km/h 47.5% 0.0 mm
13:34 25.3 °C 13.2 °C 1015.2 hPa OSO 9.7 km/h 16.7 km/h 47.1% 0.0 mm
13:39 25.4 °C 13 °C 1015.2 hPa OSO 9.5 km/h 20.9 km/h 46.2% 0.0 mm
13:44 25.4 °C 13.1 °C 1014.9 hPa Oeste 9.5 km/h 20.9 km/h 46.4% 0.0 mm
13:49 25.5 °C 13.2 °C 1014.9 hPa ONO 9.5 km/h 16.1 km/h 46.5% 0.0 mm
13:54 25.6 °C 13.2 °C 1014.9 hPa Oeste 8.7 km/h 20.9 km/h 46.1% 0.0 mm
13:59 25.6 °C 12.9 °C 1014.7 hPa Oeste 8.4 km/h 20.9 km/h 45.3% 0.0 mm
14:04 25.7 °C 13.3 °C 1014.7 hPa SO 9.9 km/h 19.3 km/h 46.3% 0.0 mm
14:09 25.7 °C 13.5 °C 1014.7 hPa SO 10.3 km/h 14.8 km/h 47.1% 0.0 mm
14:14 25.7 °C 13.5 °C 1014.7 hPa SO 9.7 km/h 20.4 km/h 47.1% 0.0 mm
14:19 25.7 °C 13.6 °C 1014.7 hPa SO 9.5 km/h 20.9 km/h 47% 0.0 mm
14:24 25.8 °C 13.4 °C 1014.7 hPa SO 8.7 km/h 14.5 km/h 46.5% 0.0 mm
14:29 26 °C 13.4 °C 1014.5 hPa OSO 8.4 km/h 14 km/h 46% 0.0 mm
14:34 26.1 °C 13.5 °C 1014.5 hPa OSO 7.8 km/h 14.8 km/h 45.8% 0.0 mm
14:39 26 °C 13.4 °C 1014.5 hPa SO 7.6 km/h 15.6 km/h 45.5% 0.0 mm
14:44 26.1 °C 13.2 °C 1014.4 hPa SO 7.1 km/h 16.1 km/h 44.9% 0.0 mm
14:49 26.2 °C 13.4 °C 1014.4 hPa OSO 6.9 km/h 15.6 km/h 45.3% 0.0 mm
14:54 26.2 °C 13.3 °C 1014.4 hPa Oeste 6.9 km/h 16.1 km/h 45% 0.0 mm
14:59 26.3 °C 12.7 °C 1014.3 hPa Oeste 6.9 km/h 11.9 km/h 43.1% 0.0 mm
15:04 26.3 °C 12.9 °C 1014.3 hPa OSO 5.4 km/h 13 km/h 43.4% 0.0 mm
15:09 26.4 °C 13 °C 1014.3 hPa SO 5 km/h 14.8 km/h 43.3% 0.0 mm
15:14 26.3 °C 12.8 °C 1014.2 hPa SSO 6.9 km/h 14.5 km/h 43% 0.0 mm
15:19 26.3 °C 12.8 °C 1014.2 hPa SSO 7.6 km/h 13 km/h 43.1% 0.0 mm
15:24 26.4 °C 13 °C 1014.3 hPa Sur 7.1 km/h 14.8 km/h 43.4% 0.0 mm
15:29 26.4 °C 12.8 °C 1014.3 hPa Sur 6.9 km/h 14.5 km/h 42.8% 0.0 mm
15:34 26.4 °C 12.4 °C 1014.3 hPa SO 8 km/h 13 km/h 41.9% 0.0 mm
15:39 26.6 °C 12.3 °C 1014.3 hPa SSO 8.4 km/h 12.9 km/h 41% 0.0 mm
15:44 26.7 °C 12.3 °C 1014.2 hPa Sur 6.4 km/h 14.8 km/h 41% 0.0 mm
15:49 26.7 °C 12.4 °C 1014.2 hPa SO 5.8 km/h 14.5 km/h 41.2% 0.0 mm
15:54 26.7 °C 12.3 °C 1014.3 hPa SO 7.1 km/h 11.3 km/h 41% 0.0 mm
15:59 26.8 °C 12.1 °C 1014.3 hPa SSO 7.6 km/h 10 km/h 40.1% 0.0 mm
16:04 26.9 °C 12.1 °C 1014.3 hPa SSO 5.3 km/h 11.9 km/h 40% 0.0 mm
16:09 26.9 °C 12.4 °C 1014.3 hPa SSO 4.7 km/h 11.9 km/h 40.6% 0.0 mm
16:14 26.8 °C 12.4 °C 1014.3 hPa Sur 6 km/h 11.9 km/h 41% 0.0 mm
16:19 26.8 °C 12.5 °C 1014.3 hPa SSE 6.5 km/h 11.3 km/h 41% 0.0 mm
16:24 26.9 °C 12.3 °C 1014.4 hPa SSE 4.5 km/h 9.5 km/h 40.4% 0.0 mm
16:29 26.9 °C 12.3 °C 1014.4 hPa Sur 3.9 km/h 10 km/h 40.3% 0.0 mm
16:34 26.9 °C 12.2 °C 1014.4 hPa Sur 5.3 km/h 11.1 km/h 40% 0.0 mm
16:39 26.9 °C 12.2 °C 1014.4 hPa Sur 5.8 km/h 11.3 km/h 40% 0.0 mm
16:44 27.1 °C 12.2 °C 1014.4 hPa SSE 3.9 km/h 6.4 km/h 39.6% 0.0 mm
16:49 27.2 °C 12 °C 1014.4 hPa SO 3.2 km/h 7.4 km/h 38.9% 0.0 mm
16:54 27.2 °C 12.1 °C 1014.4 hPa Oeste 3.2 km/h 8 km/h 39% 0.0 mm
16:59 27.2 °C 12 °C 1014.4 hPa Oeste 3.2 km/h 7.4 km/h 38.8% 0.0 mm
17:04 27.2 °C 12 °C 1014.4 hPa SSO 3.7 km/h 8 km/h 38.7% 0.0 mm
17:09 27.2 °C 11.9 °C 1014.6 hPa SSO 3.9 km/h 7.4 km/h 38.5% 0.0 mm
17:14 27.2 °C 11.9 °C 1014.6 hPa SSO 3.4 km/h 10 km/h 38.6% 0.0 mm
17:19 27 °C 11.9 °C 1014.6 hPa SO 3.2 km/h 9.7 km/h 39% 0.0 mm
17:24 26.9 °C 11.8 °C 1014.7 hPa SSO 5.7 km/h 10 km/h 39.1% 0.0 mm
17:29 26.7 °C 11.8 °C 1014.7 hPa SO 6.5 km/h 9.7 km/h 39.6% 0.0 mm
17:34 26.6 °C 11.9 °C 1014.7 hPa SSO 6.5 km/h 9.7 km/h 40% 0.0 mm
17:39 26.5 °C 11.8 °C 1014.8 hPa SSO 6.5 km/h 10 km/h 40% 0.0 mm
17:44 26.4 °C 11.7 °C 1014.8 hPa SSO 6.5 km/h 10 km/h 40% 0.0 mm
17:49 26.3 °C 11.6 °C 1014.8 hPa SSO 6.5 km/h 9.7 km/h 40% 0.0 mm
17:54 26.2 °C 11.7 °C 1014.8 hPa SSE 6.5 km/h 9.7 km/h 40.5% 0.0 mm
17:59 26 °C 12.8 °C 1014.8 hPa ESE 6.5 km/h 11.1 km/h 44.1% 0.0 mm
18:04 25.4 °C 13.9 °C 1014.8 hPa ESE 6 km/h 11.3 km/h 49% 0.0 mm
18:09 24.7 °C 14.6 °C 1014.9 hPa ESE 5.8 km/h 11.3 km/h 53.2% 0.0 mm
18:14 24.3 °C 15.1 °C 1014.9 hPa ESE 6.6 km/h 11.3 km/h 56.6% 0.0 mm
18:19 23.9 °C 15.5 °C 1014.9 hPa ESE 6.9 km/h 11.9 km/h 59.2% 0.0 mm
18:24 23.6 °C 15.8 °C 1014.9 hPa SE 7.4 km/h 13.7 km/h 61.7% 0.0 mm
18:29 23.4 °C 16.1 °C 1014.9 hPa SE 7.6 km/h 14.5 km/h 63.5% 0.0 mm
18:34 23.2 °C 16.2 °C 1014.9 hPa SE 7.6 km/h 12.9 km/h 64.5% 0.0 mm
18:39 23.1 °C 16.3 °C 1015.0 hPa SE 7.6 km/h 11.3 km/h 65.4% 0.0 mm
18:44 23 °C 16.3 °C 1015.0 hPa SE 7.6 km/h 11.3 km/h 66% 0.0 mm
18:49 22.9 °C 16.3 °C 1015.0 hPa SSE 7.6 km/h 11.3 km/h 66.5% 0.0 mm
18:54 22.7 °C 16.3 °C 1015.3 hPa SSE 6.7 km/h 11.3 km/h 67% 0.0 mm
18:59 22.7 °C 16.1 °C 1015.3 hPa SSO 6.5 km/h 11.3 km/h 66.3% 0.0 mm
19:04 22.7 °C 15.8 °C 1015.3 hPa SO 6.5 km/h 11.9 km/h 65% 0.0 mm
19:09 22.6 °C 15.8 °C 1015.5 hPa SO 6.5 km/h 11.3 km/h 65.7% 0.0 mm
19:14 22.4 °C 15.8 °C 1015.5 hPa SO 6.8 km/h 16.7 km/h 66% 0.0 mm
19:19 22.3 °C 15.8 °C 1015.5 hPa SO 6.9 km/h 17.2 km/h 67% 0.0 mm
19:24 22.2 °C 15.7 °C 1015.7 hPa SO 8.3 km/h 19.8 km/h 67% 0.0 mm
19:29 22 °C 15.7 °C 1015.7 hPa SO 8.7 km/h 20.9 km/h 67.7% 0.0 mm
19:34 21.8 °C 15.7 °C 1015.7 hPa SO 9.7 km/h 18 km/h 68% 0.0 mm
19:39 21.7 °C 15.8 °C 1016.1 hPa SSO 10 km/h 19.3 km/h 68.9% 0.0 mm
19:44 21.6 °C 15.8 °C 1016.1 hPa SSO 10.2 km/h 19.3 km/h 69.5% 0.0 mm
19:49 21.4 °C 15.7 °C 1016.1 hPa SSO 10.3 km/h 16.7 km/h 70% 0.0 mm
19:54 21.3 °C 15.8 °C 1016.2 hPa SSO 9.7 km/h 14.8 km/h 70.8% 0.0 mm
19:59 21.2 °C 15.7 °C 1016.2 hPa SSO 9.5 km/h 16.7 km/h 71% 0.0 mm
20:04 21.1 °C 15.7 °C 1016.2 hPa Sur 9.5 km/h 16.1 km/h 71.2% 0.0 mm
20:09 21 °C 15.8 °C 1016.3 hPa Sur 9.5 km/h 12.9 km/h 72% 0.0 mm
20:14 20.8 °C 15.7 °C 1016.3 hPa Sur 8 km/h 14.8 km/h 72.3% 0.0 mm
20:19 20.7 °C 15.7 °C 1016.3 hPa SSO 7.6 km/h 16.4 km/h 73% 0.0 mm
20:24 20.7 °C 15.6 °C 1016.4 hPa SSO 8.2 km/h 16.7 km/h 73% 0.0 mm
20:29 20.6 °C 15.7 °C 1016.4 hPa SSO 8.4 km/h 16.1 km/h 73.6% 0.0 mm
20:34 20.6 °C 15.8 °C 1016.4 hPa SSO 7.8 km/h 10.3 km/h 74% 0.0 mm
20:39 20.5 °C 15.7 °C 1016.6 hPa SSO 7.6 km/h 11.3 km/h 74% 0.0 mm
20:44 20.5 °C 15.7 °C 1016.6 hPa SSO 6.7 km/h 9.7 km/h 74% 0.0 mm
20:49 20.4 °C 15.5 °C 1016.6 hPa SO 6.5 km/h 9.7 km/h 73.3% 0.0 mm
20:54 20.4 °C 15.4 °C 1016.8 hPa SO 6 km/h 11.1 km/h 73% 0.0 mm
20:59 20.4 °C 15.4 °C 1016.8 hPa SO 5.8 km/h 11.3 km/h 73.2% 0.0 mm
21:04 20.3 °C 15.5 °C 1016.8 hPa SO 6.3 km/h 10 km/h 74% 0.0 mm
21:09 20.2 °C 15.4 °C 1017.1 hPa SSO 6.5 km/h 11.9 km/h 74% 0.0 mm
21:14 20.1 °C 15.4 °C 1017.1 hPa SSO 7.3 km/h 14.8 km/h 74.3% 0.0 mm
21:19 20.1 °C 15.5 °C 1017.1 hPa SSO 7.6 km/h 14.5 km/h 75% 0.0 mm
21:24 20.1 °C 15.6 °C 1017.2 hPa SSO 8.2 km/h 14.8 km/h 75% 0.0 mm
21:29 20.1 °C 15.5 °C 1017.2 hPa SSO 8.4 km/h 14.8 km/h 75% 0.0 mm
21:34 19.9 °C 15.4 °C 1017.2 hPa SO 8.6 km/h 18 km/h 75% 0.0 mm
21:39 19.9 °C 15.3 °C 1017.2 hPa SSO 8.7 km/h 19.3 km/h 75% 0.0 mm
21:44 19.8 °C 15.3 °C 1017.2 hPa SSO 9.7 km/h 17.7 km/h 75.1% 0.0 mm
21:49 19.8 °C 15.3 °C 1017.2 hPa SSO 10 km/h 16.7 km/h 75.2% 0.0 mm
21:54 19.8 °C 15.2 °C 1017.4 hPa SSO 10 km/h 16.1 km/h 75% 0.0 mm
21:59 19.8 °C 15.2 °C 1017.4 hPa SSO 10 km/h 14.5 km/h 75% 0.0 mm
22:04 19.8 °C 15.2 °C 1017.4 hPa SSO 9 km/h 12.9 km/h 75% 0.0 mm
22:09 19.7 °C 15.2 °C 1017.4 hPa SSO 8.7 km/h 11.3 km/h 75% 0.0 mm
22:14 19.7 °C 15.1 °C 1017.4 hPa Sur 7.3 km/h 11.3 km/h 75% 0.0 mm
22:19 19.6 °C 15.1 °C 1017.4 hPa Sur 6.9 km/h 9.7 km/h 75% 0.0 mm
22:24 19.6 °C 15.1 °C 1017.4 hPa SSO 6.1 km/h 9.5 km/h 75% 0.0 mm
22:29 19.5 °C 15 °C 1017.4 hPa Sur 5.8 km/h 10 km/h 75% 0.0 mm
22:34 19.5 °C 14.9 °C 1017.4 hPa SSO 6.3 km/h 10 km/h 75% 0.0 mm
22:39 19.4 °C 14.8 °C 1017.5 hPa SO 6.5 km/h 10 km/h 74.8% 0.0 mm
22:44 19.5 °C 14.7 °C 1017.5 hPa SO 6 km/h 11.1 km/h 73.9% 0.0 mm
22:49 19.6 °C 14.6 °C 1017.5 hPa SO 5.8 km/h 11.3 km/h 72.6% 0.0 mm
22:54 19.7 °C 14.4 °C 1017.6 hPa SSO 7.1 km/h 13.7 km/h 71.6% 0.0 mm
22:59 19.9 °C 14.3 °C 1017.6 hPa SSO 7.6 km/h 14.8 km/h 70.2% 0.0 mm
23:04 20 °C 14.1 °C 1017.6 hPa SSO 9.7 km/h 17.2 km/h 69.1% 0.0 mm
23:09 19.9 °C 14.1 °C 1017.6 hPa SSO 10.3 km/h 17.7 km/h 69% 0.0 mm
23:14 19.9 °C 14.1 °C 1017.6 hPa SSO 10.3 km/h 17.2 km/h 69.5% 0.0 mm
23:19 19.8 °C 14.1 °C 1017.6 hPa SSO 10.3 km/h 17.7 km/h 70% 0.0 mm
23:24 19.7 °C 14 °C 1017.6 hPa SSO 10.1 km/h 16.1 km/h 70% 0.0 mm
23:29 19.6 °C 14 °C 1017.6 hPa SSO 10 km/h 14.8 km/h 70% 0.0 mm
23:34 19.6 °C 14 °C 1017.6 hPa SSO 9.6 km/h 14.8 km/h 70% 0.0 mm
23:39 19.6 °C 14 °C 1017.6 hPa SSO 9.5 km/h 16.7 km/h 70% 0.0 mm
23:44 19.7 °C 13.9 °C 1017.6 hPa SSO 9.9 km/h 18.5 km/h 69.5% 0.0 mm
23:49 19.7 °C 13.8 °C 1017.6 hPa SSO 10 km/h 19.3 km/h 69% 0.0 mm
23:54 19.8 °C 13.8 °C 1017.6 hPa SSO 11.4 km/h 19.3 km/h 68.4% 0.0 mm
23:59 19.8 °C 13.7 °C 1017.6 hPa SSO 11.9 km/h 20.9 km/h 68% 0.0 mm
Murcia-Puente Tocinos, España
Compliments of Weather Underground - 3 mb

La estación de MeteoMurcia.com, publica sus datos en los siguientes proyectos:

Weather Underground PWS IMURCIAP2 Meteoclimatic www.awekas.at

W3Counter
Web Analytics